Time;durP1;ratioP1;P1;durP2;ratioP2;P2;SDS_P1;SDS_P2;PMS_P1;PMS_P2;Temp;Humidity;BMP_temperature;BMP_pressure;BME280_temperature;BME280_humidity;BME280_pressure;Samples;Min_cycle;Max_cycle;Signal;HPM_P1;HPM_P2
2021/08/25 00:01:56;;;;;;;3.03;1.33;;;18.30;71.00;;;;;;5070719;28;20035;-79
2021/08/25 00:04:22;;;;;;;1.67;0.90;;;18.30;71.10;;;;;;5076188;28;20036;-79
2021/08/25 00:06:48;;;;;;;1.92;0.98;;;18.20;71.30;;;;;;5058360;28;20025;-79
2021/08/25 00:09:13;;;;;;;2.65;1.30;;;18.20;71.50;;;;;;5058336;28;20029;-79
2021/08/25 00:11:39;;;;;;;3.00;1.10;;;18.20;71.40;;;;;;5063178;28;20521;-80
2021/08/25 00:14:05;;;;;;;3.63;1.10;;;18.10;71.20;;;;;;5078435;28;20064;-80
2021/08/25 00:16:30;;;;;;;2.08;1.02;;;18.20;71.50;;;;;;5072508;28;20055;-80
2021/08/25 00:18:56;;;;;;;2.00;1.17;;;18.10;71.50;;;;;;5058022;28;20506;-79
2021/08/25 00:21:21;;;;;;;1.98;1.15;;;18.10;71.80;;;;;;5057936;28;20808;-80
2021/08/25 00:23:47;;;;;;;2.88;1.30;;;18.00;71.70;;;;;;5058011;28;20029;-79
2021/08/25 00:26:13;;;;;;;2.20;1.02;;;18.00;71.90;;;;;;5058362;28;20052;-79
2021/08/25 00:28:38;;;;;;;1.60;1.20;;;18.00;72.10;;;;;;5058135;28;20043;-79
2021/08/25 00:31:04;;;;;;;2.10;1.33;;;17.90;72.00;;;;;;5057785;28;20061;-79
2021/08/25 00:33:30;;;;;;;2.38;1.13;;;17.90;72.10;;;;;;5057944;28;20104;-80
2021/08/25 00:35:55;;;;;;;2.25;1.20;;;17.90;72.00;;;;;;5072209;28;20025;-79
2021/08/25 00:38:21;;;;;;;2.90;1.30;;;17.90;72.10;;;;;;5057785;28;20143;-79
2021/08/25 00:40:46;;;;;;;1.70;1.30;;;17.90;72.20;;;;;;5065151;28;20089;-79
2021/08/25 00:43:12;;;;;;;1.77;1.20;;;17.80;72.10;;;;;;5058544;28;20086;-79
2021/08/25 00:45:47;;;;;;;2.35;1.45;;;17.80;72.10;;;;;;5057808;28;20028;-79
2021/08/25 00:48:14;;;;;;;2.25;1.30;;;17.80;72.20;;;;;;5057606;28;20071;-79
2021/08/25 00:50:40;;;;;;;1.92;1.50;;;17.80;72.00;;;;;;5057664;28;20061;-80
2021/08/25 00:53:06;;;;;;;2.40;1.13;;;17.80;72.50;;;;;;5057340;28;20037;-80
2021/08/25 00:55:43;;;;;;;2.05;1.27;;;17.70;72.30;;;;;;5057540;28;20510;-79
2021/08/25 00:58:09;;;;;;;2.10;1.17;;;17.70;72.40;;;;;;5057482;28;20031;-79
2021/08/25 01:00:45;;;;;;;1.55;1.08;;;17.70;72.80;;;;;;5057572;28;20112;-79
2021/08/25 01:03:19;;;;;;;2.35;1.38;;;17.70;72.70;;;;;;5072477;28;20040;-80
2021/08/25 01:05:47;;;;;;;2.13;1.35;;;17.70;72.70;;;;;;5057433;28;20025;-80
2021/08/25 01:08:32;;;;;;;1.70;1.20;;;17.70;72.50;;;;;;5066711;28;20373;-79
2021/08/25 01:11:05;;;;;;;3.10;1.40;;;17.70;72.60;;;;;;5073106;28;20025;-79
2021/08/25 01:13:31;;;;;;;2.33;1.48;;;17.60;72.70;;;;;;5055205;28;20029;-79
2021/08/25 01:15:57;;;;;;;1.63;1.10;;;17.60;72.70;;;;;;5060528;28;20028;-79
2021/08/25 01:18:23;;;;;;;2.47;1.48;;;17.60;72.90;;;;;;5057378;28;20043;-79
2021/08/25 01:20:49;;;;;;;2.05;1.27;;;17.60;72.90;;;;;;5072636;28;20025;-79
2021/08/25 01:23:22;;;;;;;1.92;1.25;;;17.60;72.90;;;;;;5077041;28;20016;-79
2021/08/25 01:26:01;;;;;;;1.73;1.20;;;17.50;72.90;;;;;;5062015;28;20490;-79
2021/08/25 01:28:35;;;;;;;2.45;1.38;;;17.50;73.00;;;;;;5056982;28;20025;-80
2021/08/25 01:31:16;;;;;;;1.50;1.20;;;17.50;72.70;;;;;;5055665;28;20017;-79
2021/08/25 01:33:42;;;;;;;2.13;1.52;;;17.50;72.70;;;;;;5056832;28;20040;-79
2021/08/25 01:36:18;;;;;;;1.75;1.33;;;17.50;72.70;;;;;;5056613;28;20409;-80
2021/08/25 01:38:53;;;;;;;1.70;1.35;;;17.50;72.90;;;;;;5056946;28;20021;-79
2021/08/25 01:41:27;;;;;;;1.85;1.35;;;17.40;72.90;;;;;;5057756;28;20032;-79
2021/08/25 01:43:57;;;;;;;2.95;1.40;;;17.40;72.80;;;;;;5056670;28;20033;-79
2021/08/25 01:46:43;;;;;;;;;;;17.40;72.70;;;;;;5056879;28;20453;-79
2021/08/25 01:49:11;;;;;;;1.50;1.20;;;17.40;72.70;;;;;;5070563;28;19908;-79
2021/08/25 01:51:38;;;;;;;1.58;1.27;;;17.40;72.70;;;;;;5075213;28;20111;-79
2021/08/25 01:54:05;;;;;;;1.67;1.30;;;17.40;72.60;;;;;;5076782;28;20557;-79
2021/08/25 01:56:31;;;;;;;2.83;1.42;;;17.40;72.70;;;;;;5073929;28;20040;-79
2021/08/25 01:58:58;;;;;;;1.38;1.27;;;17.30;72.80;;;;;;5076119;28;20028;-79
2021/08/25 02:01:23;;;;;;;2.03;1.42;;;17.30;72.80;;;;;;5061851;28;20059;-79
2021/08/25 02:03:49;;;;;;;2.00;1.65;;;17.30;72.70;;;;;;5056056;28;20164;-79
2021/08/25 02:06:15;;;;;;;2.65;1.38;;;17.30;72.90;;;;;;5055133;28;20583;-79
2021/08/25 02:08:41;;;;;;;1.92;1.35;;;17.30;72.90;;;;;;5056075;28;20025;-79
2021/08/25 02:11:06;;;;;;;2.00;1.25;;;17.20;73.10;;;;;;5074120;28;20055;-79
2021/08/25 02:13:32;;;;;;;2.53;1.50;;;17.20;73.10;;;;;;5075971;28;20495;-79
2021/08/25 02:15:58;;;;;;;2.72;1.45;;;17.20;73.30;;;;;;5076252;28;20089;-79
2021/08/25 02:18:23;;;;;;;2.40;1.33;;;17.20;73.30;;;;;;5069874;28;20035;-79
2021/08/25 02:20:49;;;;;;;2.58;1.63;;;17.20;73.20;;;;;;5055864;28;20039;-79
2021/08/25 02:23:15;;;;;;;2.13;1.60;;;17.00;73.60;;;;;;5055546;28;20068;-79
2021/08/25 02:25:41;;;;;;;2.20;1.30;;;17.00;73.60;;;;;;5063739;28;20462;-80
2021/08/25 02:28:06;;;;;;;2.45;1.50;;;17.10;73.70;;;;;;5074539;28;20417;-79
2021/08/25 02:30:32;;;;;;;2.15;1.60;;;17.10;73.50;;;;;;5075764;28;20024;-79
2021/08/25 02:32:58;;;;;;;2.00;1.40;;;17.10;73.50;;;;;;5068435;28;20017;-79
2021/08/25 02:35:24;;;;;;;3.65;1.65;;;17.00;73.60;;;;;;5055796;28;20499;-79
2021/08/25 02:37:49;;;;;;;1.77;1.33;;;17.00;73.60;;;;;;5055457;28;20025;-79
2021/08/25 02:40:16;;;;;;;1.42;1.30;;;17.00;73.30;;;;;;5056559;28;20138;-78
2021/08/25 02:42:41;;;;;;;1.55;1.17;;;17.00;73.30;;;;;;5055578;28;20092;-79
2021/08/25 02:45:30;;;;;;;1.80;1.40;;;17.00;73.50;;;;;;5055544;28;20037;-79
2021/08/25 02:47:56;;;;;;;1.38;1.27;;;16.90;73.40;;;;;;5054014;28;20052;-79
2021/08/25 02:50:21;;;;;;;2.75;1.50;;;17.00;73.30;;;;;;5055152;28;20086;-79
2021/08/25 02:52:47;;;;;;;2.40;1.40;;;17.00;73.30;;;;;;5055328;28;20025;-79
2021/08/25 02:55:13;;;;;;;2.15;1.30;;;16.80;73.60;;;;;;5060692;28;20036;-79
2021/08/25 02:57:38;;;;;;;1.60;1.23;;;16.80;73.70;;;;;;5071866;28;20107;-79
2021/08/25 03:00:06;;;;;;;2.10;1.30;;;16.80;73.40;;;;;;5055492;28;20043;-78
2021/08/25 03:02:35;;;;;;;2.35;1.55;;;16.80;73.50;;;;;;5053876;28;20088;-80
2021/08/25 03:05:00;;;;;;;3.17;1.50;;;16.80;73.30;;;;;;5053939;28;20139;-79
2021/08/25 03:07:26;;;;;;;1.70;1.30;;;16.80;73.40;;;;;;5053946;28;20029;-79
2021/08/25 03:09:52;;;;;;;2.20;1.42;;;16.80;73.40;;;;;;5055273;28;20101;-80
2021/08/25 03:12:17;;;;;;;1.85;1.42;;;16.80;73.20;;;;;;5055104;28;20497;-80
2021/08/25 03:14:43;;;;;;;2.85;1.33;;;16.80;73.20;;;;;;5055275;28;20483;-78
2021/08/25 03:17:10;;;;;;;2.58;1.30;;;16.80;73.20;;;;;;5054850;28;20693;-79
2021/08/25 03:19:39;;;;;;;2.38;1.35;;;16.80;73.40;;;;;;5055149;28;20035;-79
2021/08/25 03:22:05;;;;;;;2.05;1.50;;;16.70;73.30;;;;;;5055072;28;20044;-79
2021/08/25 03:24:30;;;;;;;1.92;1.60;;;16.70;73.30;;;;;;5054945;28;20037;-79
2021/08/25 03:26:56;;;;;;;2.08;1.30;;;16.70;73.30;;;;;;5055063;28;20017;-80
2021/08/25 03:29:22;;;;;;;2.50;1.15;;;16.60;73.40;;;;;;5058767;28;20563;-78
2021/08/25 03:31:47;;;;;;;2.97;1.27;;;16.60;73.40;;;;;;5074903;28;20068;-78
2021/08/25 03:34:13;;;;;;;1.42;1.33;;;16.50;73.50;;;;;;5075226;28;20115;-79
2021/08/25 03:36:44;;;;;;;2.92;1.60;;;16.60;73.30;;;;;;5078396;28;20051;-79
2021/08/25 03:39:10;;;;;;;2.15;1.40;;;16.60;73.10;;;;;;5061748;28;20418;-79
2021/08/25 03:41:35;;;;;;;2.13;1.60;;;16.60;73.00;;;;;;5073034;28;20074;-79
2021/08/25 03:44:01;;;;;;;2.00;1.20;;;16.60;73.20;;;;;;5059529;28;20075;-79
2021/08/25 03:46:27;;;;;;;2.28;1.58;;;16.50;73.20;;;;;;5058714;28;20102;-79
2021/08/25 03:48:53;;;;;;;1.80;1.42;;;16.50;73.20;;;;;;5058952;28;20025;-79
2021/08/25 03:51:19;;;;;;;3.03;1.33;;;16.50;73.30;;;;;;5057117;28;20494;-79
2021/08/25 03:53:45;;;;;;;2.05;1.40;;;16.50;73.30;;;;;;5058702;28;20029;-79
2021/08/25 03:56:11;;;;;;;2.10;1.52;;;16.50;73.20;;;;;;5060675;28;20032;-79
2021/08/25 03:58:37;;;;;;;3.05;1.40;;;16.40;73.10;;;;;;5078725;28;20044;-79
2021/08/25 04:01:02;;;;;;;1.98;1.30;;;16.40;73.20;;;;;;5077097;28;20028;-79
2021/08/25 04:03:28;;;;;;;2.47;1.50;;;16.40;73.00;;;;;;5078370;28;20033;-79
2021/08/25 04:05:54;;;;;;;2.65;1.55;;;16.40;73.10;;;;;;5067180;28;20040;-79
2021/08/25 04:08:19;;;;;;;1.80;1.60;;;16.40;73.20;;;;;;5058522;28;20040;-78
2021/08/25 04:10:45;;;;;;;1.83;1.50;;;16.30;73.40;;;;;;5057156;28;20108;-79
2021/08/25 04:13:11;;;;;;;1.88;1.48;;;16.30;73.60;;;;;;5058170;28;20025;-79
2021/08/25 04:15:39;;;;;;;2.15;1.48;;;16.30;73.50;;;;;;5058428;28;20078;-79
2021/08/25 04:18:05;;;;;;;2.40;1.65;;;16.30;73.40;;;;;;5058395;28;20031;-79
2021/08/25 04:20:31;;;;;;;2.63;1.38;;;16.30;73.60;;;;;;5058053;28;20032;-79
2021/08/25 04:22:56;;;;;;;1.73;1.45;;;16.20;73.50;;;;;;5057798;28;20499;-78
2021/08/25 04:25:22;;;;;;;3.10;1.50;;;16.20;73.40;;;;;;5077868;28;20562;-79
2021/08/25 04:27:50;;;;;;;1.63;1.50;;;16.30;73.40;;;;;;5076739;28;20493;-79
2021/08/25 04:30:16;;;;;;;2.45;1.73;;;16.30;73.60;;;;;;5078138;28;20372;-79
2021/08/25 04:32:41;;;;;;;1.50;1.30;;;16.30;73.40;;;;;;5070336;28;20048;-77
2021/08/25 04:35:07;;;;;;;1.80;1.50;;;16.20;73.30;;;;;;5058018;28;20055;-79
2021/08/25 04:37:33;;;;;;;1.67;1.40;;;16.20;73.60;;;;;;5060813;28;20040;-79
2021/08/25 04:39:59;;;;;;;2.05;1.17;;;16.20;73.60;;;;;;5058846;28;20101;-79
2021/08/25 04:42:25;;;;;;;2.13;1.70;;;16.20;73.50;;;;;;5077861;28;20029;-79
2021/08/25 04:44:53;;;;;;;1.58;1.30;;;16.20;73.50;;;;;;5075952;28;20376;-78
2021/08/25 04:47:18;;;;;;;2.53;1.60;;;16.20;73.30;;;;;;5055775;28;20435;-78
2021/08/25 04:49:44;;;;;;;2.15;1.60;;;16.20;73.40;;;;;;5057712;28;20017;-79
2021/08/25 04:52:10;;;;;;;1.60;1.50;;;16.20;73.40;;;;;;5057672;28;20041;-79
2021/08/25 04:54:35;;;;;;;1.60;1.27;;;16.20;73.30;;;;;;5057432;28;20029;-79
2021/08/25 04:57:01;;;;;;;1.75;1.40;;;16.10;73.30;;;;;;5056086;28;20060;-79
2021/08/25 04:59:27;;;;;;;1.92;1.52;;;16.20;73.30;;;;;;5056171;28;20434;-79
2021/08/25 05:01:54;;;;;;;1.80;1.58;;;16.10;73.30;;;;;;5056057;28;20128;-79
2021/08/25 05:04:20;;;;;;;1.60;1.30;;;16.10;73.50;;;;;;5074196;28;20503;-79
2021/08/25 05:06:45;;;;;;;3.28;1.95;;;16.10;73.50;;;;;;5077418;28;20091;-79
2021/08/25 05:09:11;;;;;;;2.03;1.50;;;16.10;73.30;;;;;;5076307;28;20356;-79
2021/08/25 05:11:37;;;;;;;3.50;1.58;;;16.10;73.30;;;;;;5077360;28;20400;-79
2021/08/25 05:14:02;;;;;;;2.20;1.52;;;16.10;73.30;;;;;;5060344;28;20025;-79
2021/08/25 05:16:28;;;;;;;1.92;1.50;;;16.10;73.40;;;;;;5057269;28;20522;-78
2021/08/25 05:18:57;;;;;;;2.20;1.80;;;16.00;73.30;;;;;;5056993;28;20080;-79
2021/08/25 05:21:23;;;;;;;1.90;1.38;;;16.00;73.40;;;;;;5057118;28;20036;-79
2021/08/25 05:23:49;;;;;;;1.77;1.55;;;16.00;73.50;;;;;;5057080;28;20476;-79
2021/08/25 05:26:15;;;;;;;3.03;1.50;;;16.00;73.40;;;;;;5056935;28;20021;-79
2021/08/25 05:28:40;;;;;;;1.45;1.35;;;16.00;73.40;;;;;;5056737;28;20387;-79
2021/08/25 05:31:06;;;;;;;1.88;1.67;;;16.00;73.50;;;;;;5057110;28;20494;-78
2021/08/25 05:33:31;;;;;;;2.22;1.63;;;15.90;73.50;;;;;;5055706;28;20040;-79
2021/08/25 05:35:59;;;;;;;2.05;1.48;;;16.00;73.60;;;;;;5067461;28;20031;-79
2021/08/25 05:38:26;;;;;;;1.92;1.73;;;16.00;73.40;;;;;;5072428;28;20119;-79
2021/08/25 05:40:51;;;;;;;2.83;1.70;;;15.90;73.50;;;;;;5076523;28;20020;-79
2021/08/25 05:43:17;;;;;;;1.75;1.33;;;16.00;73.50;;;;;;5066218;28;20028;-79
2021/08/25 05:45:44;;;;;;;2.13;1.50;;;15.90;73.40;;;;;;5076631;28;20113;-79
2021/08/25 05:48:10;;;;;;;2.60;1.90;;;16.00;73.50;;;;;;5076252;28;20040;-79
2021/08/25 05:50:35;;;;;;;1.50;1.23;;;15.90;73.70;;;;;;5074935;28;20031;-79
2021/08/25 05:53:01;;;;;;;1.70;1.60;;;15.90;73.60;;;;;;5076319;28;20020;-79
2021/08/25 05:55:27;;;;;;;2.22;1.60;;;15.90;73.80;;;;;;5076401;28;20025;-79
2021/08/25 05:57:53;;;;;;;1.80;1.70;;;16.00;73.60;;;;;;5062184;28;20500;-79
2021/08/25 06:00:20;;;;;;;1.65;1.55;;;16.00;73.40;;;;;;5056534;28;20103;-79
2021/08/25 06:02:45;;;;;;;2.05;1.55;;;16.00;73.60;;;;;;5055925;28;20023;-79
2021/08/25 06:05:13;;;;;;;2.00;1.42;;;16.00;73.70;;;;;;5056028;28;20108;-78
2021/08/25 06:07:39;;;;;;;1.92;1.60;;;16.00;73.70;;;;;;5056268;28;20062;-79
2021/08/25 06:10:06;;;;;;;2.80;1.90;;;16.10;73.50;;;;;;5060602;28;20499;-79
2021/08/25 06:12:32;;;;;;;1.50;1.33;;;16.10;73.30;;;;;;5056051;28;20025;-79
2021/08/25 06:14:58;;;;;;;3.08;1.67;;;16.10;73.20;;;;;;5056052;28;20040;-79
2021/08/25 06:17:23;;;;;;;1.80;1.60;;;16.20;73.20;;;;;;5055857;28;20032;-79
2021/08/25 06:19:49;;;;;;;2.22;1.98;;;16.20;73.00;;;;;;5055807;28;20499;-79
2021/08/25 06:22:15;;;;;;;2.10;1.52;;;16.20;73.30;;;;;;5055813;28;20434;-79
2021/08/25 06:24:40;;;;;;;1.50;1.40;;;16.10;73.50;;;;;;5055797;28;20102;-79
2021/08/25 06:27:06;;;;;;;2.05;1.50;;;16.10;73.70;;;;;;5055725;28;20028;-78
2021/08/25 06:29:32;;;;;;;1.67;1.58;;;16.20;73.50;;;;;;5055745;28;20388;-79
2021/08/25 06:31:57;;;;;;;1.95;1.70;;;16.20;73.70;;;;;;5055547;28;20020;-79
2021/08/25 06:34:23;;;;;;;2.03;1.42;;;16.20;73.80;;;;;;5055564;28;20036;-79
2021/08/25 06:36:49;;;;;;;2.13;1.45;;;16.30;73.60;;;;;;5055575;28;20047;-79
2021/08/25 06:39:14;;;;;;;3.15;1.70;;;16.30;73.40;;;;;;5055796;28;20399;-79
2021/08/25 06:41:40;;;;;;;2.38;1.63;;;16.30;73.30;;;;;;5057861;28;20055;-79
2021/08/25 06:44:06;;;;;;;2.70;1.55;;;16.40;73.20;;;;;;5069439;28;20028;-79
2021/08/25 06:46:32;;;;;;;1.75;1.65;;;16.50;73.20;;;;;;5074128;28;20094;-79
2021/08/25 06:48:57;;;;;;;2.10;1.65;;;16.50;73.20;;;;;;5075410;28;20557;-79
2021/08/25 06:51:23;;;;;;;1.90;1.40;;;16.60;73.00;;;;;;5075204;28;20466;-79
2021/08/25 06:53:49;;;;;;;2.30;2.10;;;16.60;72.70;;;;;;5074070;28;20641;-79
2021/08/25 06:56:14;;;;;;;1.35;1.25;;;16.70;72.60;;;;;;5062700;28;20033;-79
2021/08/25 06:58:40;;;;;;;1.70;1.50;;;16.70;72.30;;;;;;5055510;28;20064;-79
2021/08/25 07:01:06;;;;;;;2.10;1.55;;;16.80;72.30;;;;;;5071583;28;20029;-79
2021/08/25 07:03:32;;;;;;;2.05;1.50;;;16.80;72.20;;;;;;5075301;28;20033;-79
2021/08/25 07:05:57;;;;;;;2.03;1.50;;;16.90;72.00;;;;;;5075102;28;20028;-79
2021/08/25 07:08:23;;;;;;;2.17;1.45;;;16.90;72.00;;;;;;5066352;28;20031;-80
2021/08/25 07:10:49;;;;;;;1.55;1.30;;;16.90;72.00;;;;;;5055152;28;20097;-79
2021/08/25 07:13:14;;;;;;;2.08;1.60;;;17.00;71.70;;;;;;5055096;28;20105;-79
2021/08/25 07:15:40;;;;;;;2.53;1.70;;;17.10;71.60;;;;;;5065872;28;20024;-79
2021/08/25 07:18:06;;;;;;;1.85;1.50;;;17.20;71.40;;;;;;5075105;28;20027;-79
2021/08/25 07:20:32;;;;;;;2.17;1.58;;;17.20;71.40;;;;;;5075213;28;20513;-79
2021/08/25 07:22:57;;;;;;;2.00;1.60;;;17.30;71.00;;;;;;5065361;28;20589;-78
2021/08/25 07:25:23;;;;;;;1.92;1.60;;;17.30;70.80;;;;;;5054954;28;20029;-80
2021/08/25 07:27:49;;;;;;;1.40;1.30;;;17.50;70.20;;;;;;5053705;28;20058;-79
2021/08/25 07:30:14;;;;;;;1.70;1.40;;;17.70;69.90;;;;;;5054921;28;20509;-79
2021/08/25 07:32:41;;;;;;;2.10;1.83;;;17.70;69.50;;;;;;5054942;28;20039;-79
2021/08/25 07:35:09;;;;;;;1.75;1.60;;;17.80;69.00;;;;;;5053552;28;20025;-79
2021/08/25 07:37:35;;;;;;;3.53;1.52;;;18.10;68.60;;;;;;5054978;28;20036;-79
2021/08/25 07:40:01;;;;;;;1.85;1.30;;;18.30;68.10;;;;;;5066407;28;20029;-80
2021/08/25 07:42:27;;;;;;;2.90;1.33;;;18.30;67.90;;;;;;5074836;28;20042;-79
2021/08/25 07:44:52;;;;;;;1.33;1.00;;;18.60;67.40;;;;;;5074780;28;20029;-79
2021/08/25 07:47:18;;;;;;;1.77;1.40;;;18.70;66.90;;;;;;5073974;28;20059;-79
2021/08/25 07:49:43;;;;;;;1.92;1.40;;;18.80;66.50;;;;;;5074421;28;20020;-79
2021/08/25 07:52:09;;;;;;;1.85;1.45;;;18.90;66.20;;;;;;5074695;28;20032;-79
2021/08/25 07:54:35;;;;;;;2.15;1.40;;;19.30;65.60;;;;;;5073592;28;20032;-80
2021/08/25 07:57:00;;;;;;;1.40;1.20;;;20.40;62.60;;;;;;5057413;28;20032;-79
2021/08/25 07:59:26;;;;;;;1.50;1.10;;;23.30;55.20;;;;;;5053443;28;20025;-80
2021/08/25 08:01:52;;;;;;;1.30;1.10;;;25.90;48.40;;;;;;5056004;28;20059;-79
2021/08/25 08:04:17;;;;;;;1.90;1.20;;;28.00;43.50;;;;;;5054432;28;20407;-79
2021/08/25 08:06:43;;;;;;;2.17;1.08;;;29.40;40.30;;;;;;5054396;28;20079;-78
2021/08/25 08:09:09;;;;;;;1.38;1.10;;;30.70;38.10;;;;;;5054470;28;20033;-79
2021/08/25 08:11:34;;;;;;;1.38;1.00;;;31.50;36.10;;;;;;5054681;28;20029;-79
2021/08/25 08:14:00;;;;;;;2.25;1.00;;;31.70;34.80;;;;;;5054251;28;20431;-78
2021/08/25 08:16:26;;;;;;;1.88;1.00;;;32.40;34.20;;;;;;5053530;28;20029;-79
2021/08/25 08:18:57;;;;;;;1.30;0.80;;;33.10;32.10;;;;;;5054478;28;20499;-78
2021/08/25 08:21:25;;;;;;;1.35;0.80;;;33.50;32.90;;;;;;5055698;28;20037;-79
2021/08/25 08:23:51;;;;;;;1.70;1.00;;;33.90;31.10;;;;;;5058024;28;20025;-79
2021/08/25 08:26:17;;;;;;;2.10;0.98;;;34.30;31.10;;;;;;5058162;28;20040;-79
2021/08/25 08:28:42;;;;;;;1.48;1.00;;;34.50;30.40;;;;;;5058079;28;20074;-79
2021/08/25 08:31:10;;;;;;;1.83;0.93;;;34.80;29.80;;;;;;5076698;28;20103;-79
2021/08/25 08:33:36;;;;;;;1.17;0.90;;;35.10;29.50;;;;;;5078164;28;20021;-79
2021/08/25 08:36:02;;;;;;;1.00;0.80;;;35.30;30.40;;;;;;5072003;28;20109;-79
2021/08/25 08:38:28;;;;;;;1.40;0.85;;;35.50;29.40;;;;;;5057839;28;20731;-79
2021/08/25 08:40:54;;;;;;;1.95;0.80;;;35.40;28.50;;;;;;5068436;28;20020;-79
2021/08/25 08:43:19;;;;;;;1.00;0.90;;;35.70;28.50;;;;;;5065328;28;20035;-79
2021/08/25 08:45:45;;;;;;;1.13;0.85;;;35.80;28.10;;;;;;5077759;28;20429;-79
2021/08/25 08:48:13;;;;;;;1.25;0.90;;;35.80;28.00;;;;;;5077455;28;20048;-78
2021/08/25 08:50:48;;;;;;;1.23;0.80;;;35.90;28.10;;;;;;5077722;28;20028;-79
2021/08/25 08:53:17;;;;;;;2.03;0.70;;;36.10;28.10;;;;;;5074696;28;20449;-79
2021/08/25 08:55:43;;;;;;;1.08;0.70;;;35.90;28.00;;;;;;5077624;28;20020;-79
2021/08/25 08:58:09;;;;;;;1.30;0.73;;;36.30;28.50;;;;;;5071753;28;20052;-78
2021/08/25 09:00:34;;;;;;;1.10;0.73;;;36.30;28.30;;;;;;5057448;28;20055;-79
2021/08/25 09:03:00;;;;;;;1.20;0.80;;;36.40;27.30;;;;;;5057171;28;20110;-79
2021/08/25 09:05:32;;;;;;;0.80;0.70;;;36.40;27.50;;;;;;5055882;28;20025;-79
2021/08/25 09:08:00;;;;;;;1.02;0.68;;;36.30;27.10;;;;;;5057094;28;20673;-78
2021/08/25 09:10:28;;;;;;;1.00;0.73;;;36.40;27.80;;;;;;5057238;28;20072;-81
2021/08/25 09:12:57;;;;;;;1.30;0.70;;;36.50;27.50;;;;;;5055931;28;20025;-81
2021/08/25 09:15:28;;;;;;;1.77;0.77;;;35.90;27.60;;;;;;5056404;28;20039;-81
2021/08/25 09:18:06;;;;;;;1.58;0.65;;;35.90;27.40;;;;;;5055444;28;20045;-78
2021/08/25 09:20:35;;;;;;;1.63;0.80;;;35.80;27.90;;;;;;5057166;28;20029;-78
2021/08/25 09:23:18;;;;;;;;;;;36.00;27.40;;;;;;5057595;28;20036;-79
2021/08/25 09:25:48;;;;;;;1.10;0.80;;;35.90;27.50;;;;;;5057091;28;19917;-80
2021/08/25 09:28:17;;;;;;;0.90;0.60;;;36.10;28.00;;;;;;5056929;28;20021;-78
2021/08/25 09:30:57;;;;;;;1.13;0.80;;;35.70;27.20;;;;;;5057298;28;20048;-79
2021/08/25 09:33:28;;;;;;;1.60;1.02;;;35.60;27.20;;;;;;5071207;28;20092;-78
2021/08/25 09:35:56;;;;;;;1.10;0.63;;;35.10;27.70;;;;;;5056564;28;20113;-80
2021/08/25 09:38:23;;;;;;;1.23;0.70;;;35.40;28.40;;;;;;5072160;28;20031;-80
2021/08/25 09:40:56;;;;;;;1.05;0.73;;;36.00;28.20;;;;;;5064396;28;20040;-80
2021/08/25 09:43:28;;;;;;;1.15;0.70;;;36.40;27.70;;;;;;5067025;28;20069;-80
2021/08/25 09:46:26;;;;;;;1.35;0.80;;;36.60;26.50;;;;;;5070544;28;20033;-80
2021/08/25 09:48:55;;;;;;;1.73;0.80;;;36.20;25.80;;;;;;5012295;28;20100;-80
2021/08/25 09:51:40;;;;;;;0.90;0.65;;;36.20;26.90;;;;;;5055379;28;20028;-80
2021/08/25 09:54:08;;;;;;;0.90;0.60;;;36.50;27.10;;;;;;5055111;28;20032;-81
2021/08/25 09:56:37;;;;;;;0.90;0.70;;;36.60;26.70;;;;;;5056182;28;20033;-80
2021/08/25 09:59:07;;;;;;;1.00;0.50;;;36.30;26.70;;;;;;5056403;28;20092;-80
2021/08/25 10:01:34;;;;;;;3.35;3.08;;;36.40;26.30;;;;;;5056277;28;20419;-80
2021/08/25 10:04:02;;;;;;;0.88;0.60;;;36.30;25.90;;;;;;5072412;28;20032;-80
2021/08/25 10:06:28;;;;;;;8.85;8.48;;;35.50;27.50;;;;;;5074882;28;20074;-80
2021/08/25 10:08:54;;;;;;;0.90;0.60;;;35.10;26.50;;;;;;5069552;28;20021;-79
2021/08/25 10:11:31;;;;;;;1.08;0.70;;;34.20;27.30;;;;;;5056069;28;20112;-80
2021/08/25 10:13:57;;;;;;;0.73;0.40;;;34.20;28.50;;;;;;5056034;28;20079;-80
2021/08/25 10:16:52;;;;;;;0.93;0.50;;;34.10;29.20;;;;;;5056065;28;20403;-80
2021/08/25 10:19:26;;;;;;;1.10;0.80;;;33.80;29.70;;;;;;5055951;28;20399;-80
2021/08/25 10:22:00;;;;;;;1.10;0.70;;;33.20;30.50;;;;;;5056113;28;20039;-80
2021/08/25 10:24:26;;;;;;;2.53;0.60;;;32.80;30.70;;;;;;5055882;28;20440;-80
2021/08/25 10:26:58;;;;;;;1.27;0.70;;;32.30;31.10;;;;;;5055730;28;20021;-80
2021/08/25 10:29:27;;;;;;;0.88;0.57;;;31.60;31.80;;;;;;5055871;28;20467;-79
2021/08/25 10:31:52;;;;;;;1.65;0.60;;;30.90;32.10;;;;;;5055736;28;20032;-79
2021/08/25 10:34:24;;;;;;;0.95;0.55;;;30.20;33.20;;;;;;5055644;28;20507;-80
2021/08/25 10:36:50;;;;;;;0.80;0.50;;;29.60;34.60;;;;;;5055628;28;20052;-79
2021/08/25 10:39:36;;;;;;;1.08;0.50;;;29.10;35.70;;;;;;5068964;28;20064;-80
2021/08/25 10:42:03;;;;;;;0.73;0.50;;;28.80;35.50;;;;;;5075251;28;20086;-79
2021/08/25 10:44:38;;;;;;;1.48;0.55;;;28.80;37.00;;;;;;5075199;28;20514;-79
2021/08/25 10:47:05;;;;;;;1.00;0.70;;;28.70;35.50;;;;;;5074130;28;20056;-79
2021/08/25 10:49:32;;;;;;;0.85;0.40;;;28.70;35.90;;;;;;5075522;28;20107;-80
2021/08/25 10:52:15;;;;;;;0.90;0.50;;;28.30;35.60;;;;;;5067083;28;20108;-79
2021/08/25 10:54:47;;;;;;;0.90;0.60;;;28.30;36.50;;;;;;5055368;28;20025;-79
2021/08/25 10:57:18;;;;;;;1.20;0.80;;;28.00;36.00;;;;;;5055144;28;20491;-79
2021/08/25 10:59:43;;;;;;;0.80;0.50;;;27.90;38.10;;;;;;5055386;28;20085;-79
2021/08/25 11:02:10;;;;;;;0.90;0.50;;;27.70;35.60;;;;;;5055301;28;20488;-80
2021/08/25 11:04:37;;;;;;;1.00;0.60;;;27.40;36.60;;;;;;5055070;28;20079;-79
2021/08/25 11:07:11;;;;;;;1.45;0.70;;;27.50;37.10;;;;;;5055360;28;20032;-79
2021/08/25 11:09:41;;;;;;;1.23;0.70;;;27.50;36.50;;;;;;5055431;28;20048;-79
2021/08/25 11:12:14;;;;;;;1.00;0.60;;;27.50;36.60;;;;;;5055069;28;20029;-78
2021/08/25 11:14:47;;;;;;;1.10;0.57;;;27.30;37.30;;;;;;5053866;28;20029;-79
2021/08/25 11:17:20;;;;;;;1.00;0.57;;;27.10;37.40;;;;;;5054934;28;20079;-79
2021/08/25 11:19:53;;;;;;;1.25;0.70;;;27.30;37.80;;;;;;5055155;28;20031;-79
2021/08/25 11:22:28;;;;;;;0.85;0.50;;;27.10;37.80;;;;;;5055157;28;20052;-80
2021/08/25 11:25:14;;;;;;;0.95;0.60;;;27.30;37.00;;;;;;5054821;28;20013;-79
2021/08/25 11:27:45;;;;;;;0.90;0.60;;;27.30;37.00;;;;;;5055045;28;20033;-80
2021/08/25 11:30:16;;;;;;;0.90;0.52;;;27.00;37.50;;;;;;5055050;28;20100;-79
2021/08/25 11:32:42;;;;;;;0.90;0.65;;;27.10;37.90;;;;;;5054834;28;20025;-80
2021/08/25 11:35:09;;;;;;;1.30;0.70;;;27.00;37.20;;;;;;5054802;28;20033;-79
2021/08/25 11:37:35;;;;;;;1.30;0.60;;;27.10;36.80;;;;;;5055703;28;20021;-79
2021/08/25 11:40:04;;;;;;;0.98;0.60;;;26.80;36.80;;;;;;5073648;28;20498;-79
2021/08/25 11:42:31;;;;;;;1.10;0.60;;;27.00;39.30;;;;;;5074832;28;20024;-79
2021/08/25 11:44:57;;;;;;;1.45;0.57;;;27.20;38.30;;;;;;5065557;28;20087;-80
2021/08/25 11:47:23;;;;;;;0.80;0.50;;;27.30;38.00;;;;;;5054645;28;20053;-80
2021/08/25 11:49:54;;;;;;;1.48;0.60;;;27.30;37.00;;;;;;5073498;28;20074;-80
2021/08/25 11:52:29;;;;;;;2.42;0.73;;;27.30;37.40;;;;;;5073520;28;20546;-80
2021/08/25 11:55:00;;;;;;;0.90;0.40;;;27.40;37.10;;;;;;5074747;28;20055;-79
2021/08/25 11:57:46;;;;;;;0.80;0.50;;;27.10;37.00;;;;;;5075654;28;20530;-80
2021/08/25 12:00:15;;;;;;;1.17;0.70;;;27.30;36.70;;;;;;5058842;28;20025;-79
2021/08/25 12:02:53;;;;;;;1.07;0.63;;;27.20;36.90;;;;;;5058333;28;20060;-80
2021/08/25 12:05:30;;;;;;;0.88;0.52;;;27.20;35.80;;;;;;5058441;28;20057;-79
2021/08/25 12:08:14;;;;;;;1.52;0.60;;;27.20;35.00;;;;;;5058360;28;20052;-79
2021/08/25 12:11:05;;;;;;;0.90;0.50;;;27.10;36.50;;;;;;5058509;28;20095;-79
2021/08/25 12:13:45;;;;;;;1.42;0.90;;;27.10;36.70;;;;;;5052595;28;20055;-79
2021/08/25 12:16:30;;;;;;;1.52;0.75;;;27.20;36.90;;;;;;5057030;28;20033;-79
2021/08/25 12:19:01;;;;;;;0.90;0.50;;;27.20;34.70;;;;;;5072605;28;20407;-80
2021/08/25 12:21:29;;;;;;;1.20;0.70;;;27.10;35.70;;;;;;5056564;28;20032;-80
2021/08/25 12:23:55;;;;;;;1.17;0.80;;;27.10;36.50;;;;;;5058207;28;20032;-79
2021/08/25 12:26:20;;;;;;;1.00;0.68;;;27.10;36.70;;;;;;5064065;28;20033;-80
2021/08/25 12:28:46;;;;;;;2.53;0.70;;;27.20;37.00;;;;;;5078024;28;20487;-80
2021/08/25 12:31:32;;;;;;;1.00;0.70;;;27.30;38.10;;;;;;5077884;28;20074;-80
2021/08/25 12:34:05;;;;;;;1.10;0.70;;;27.30;39.50;;;;;;5070061;28;20017;-80
2021/08/25 12:36:32;;;;;;;0.98;0.57;;;27.30;38.00;;;;;;5057903;28;20032;-80
2021/08/25 12:39:12;;;;;;;1.08;0.80;;;27.30;37.40;;;;;;5058051;28;20029;-80
2021/08/25 12:41:41;;;;;;;1.38;0.82;;;27.20;36.70;;;;;;5072293;28;20052;-80
2021/08/25 12:44:08;;;;;;;1.10;0.70;;;27.30;36.70;;;;;;5077737;28;20028;-80
2021/08/25 12:46:56;;;;;;;1.35;0.70;;;27.30;37.60;;;;;;5076976;28;20048;-79
2021/08/25 12:49:24;;;;;;;1.05;0.75;;;27.30;37.10;;;;;;5057812;28;20040;-80
2021/08/25 12:51:50;;;;;;;1.17;0.80;;;27.30;36.80;;;;;;5057754;28;20483;-81
2021/08/25 12:54:17;;;;;;;1.40;0.88;;;27.30;36.90;;;;;;5063067;28;20027;-80